Twr-7 — TWR-7 — position and weather

sailwx.info

Track history (hours):
 
Tides and Currents Weather Stations Pressure Air Temp Water Temp Dewpoint Dewpoint Depression Visibility Wind Speed Wind Dir Waves Ship Positions

Twr-7

Last reported at 2017-Mar-16 19:27 UTC. Time now 2017-Mar-23 14:22 UTC.
Position N 49°16' W 124°09'.

; draft 1.5 m.

Type: Military. MMSI: 369970258.

Date/timePositionNaut miles runAvg speedWind from/ knotsBaromVisibWave heightAir tempDewpointWater temp
2017-Mar-16 19:27N 49°16' W 124°09'  
2017-Mar-07 22:30N 49°16' W 124°04'1213.0
2017-Mar-07 21:33N 49°08' W 123°49'1515.5
2017-Mar-07 20:33N 48°57' W 123°33'1514.8
2017-Mar-07 19:33N 48°46' W 123°19'1413.8
2017-Mar-07 18:33N 48°33' W 123°11'2015.1
2017-Mar-07 17:15N 48°16' W 122°55'1815.5
2017-Mar-07 16:04N 48°01' W 122°39'816.2
2017-Mar-07 15:33N 47°53' W 122°36'  
Track history (hours):
 
Tides and Currents Weather Stations Pressure Air Temp Water Temp Dewpoint Dewpoint Depression Visibility Wind Speed Wind Dir Waves Ship Positions

Twr-7

Last reported at 2017-Mar-16 19:27 UTC. Time now 2017-Mar-23 14:22 UTC.
Position N 49°16' W 124°09'.

; draft 1.5 m.

Type: Military. MMSI: 369970258.

Date/timePositionNaut miles runAvg speedWind from/ knotsBaromVisibWave heightAir tempDewpointWater temp
2017-Mar-16 19:27N 49°16' W 124°09'  
2017-Mar-07 22:30N 49°16' W 124°04'1213.0
2017-Mar-07 21:33N 49°08' W 123°49'1515.5
2017-Mar-07 20:33N 48°57' W 123°33'1514.8
2017-Mar-07 19:33N 48°46' W 123°19'1413.8
2017-Mar-07 18:33N 48°33' W 123°11'2015.1
2017-Mar-07 17:15N 48°16' W 122°55'1815.5
2017-Mar-07 16:04N 48°01' W 122°39'816.2
2017-Mar-07 15:33N 47°53' W 122°36'  

Dump ship's entire track history